Time;durP1;ratioP1;P1;durP2;ratioP2;P2;SDS_P1;SDS_P2;PMS_P1;PMS_P2;Temp;Humidity;BMP_temperature;BMP_pressure;BME280_temperature;BME280_humidity;BME280_pressure;Samples;Min_cycle;Max_cycle;Signal;HPM_P1;HPM_P2
2021/07/26 00:00:04;;;;;;;24.33;14.40;;;18.30;99.90;;;;;;5117929;28;20080;-87
2021/07/26 00:02:31;;;;;;;20.27;14.27;;;18.20;99.90;;;;;;5150782;28;20514;-85
2021/07/26 00:04:58;;;;;;;22.73;13.68;;;18.20;99.90;;;;;;5134444;28;20039;-87
2021/07/26 00:07:24;;;;;;;18.92;14.05;;;18.10;99.90;;;;;;5134102;28;20035;-87
2021/07/26 00:09:51;;;;;;;19.75;14.73;;;18.10;99.90;;;;;;5117158;28;20028;-88
2021/07/26 00:12:18;;;;;;;22.83;14.13;;;18.10;99.90;;;;;;5117329;28;20039;-87
2021/07/26 00:14:45;;;;;;;27.10;15.60;;;18.00;99.90;;;;;;5131830;28;20445;-86
2021/07/26 00:17:12;;;;;;;21.38;15.77;;;18.00;99.90;;;;;;5116922;28;20039;-86
2021/07/26 00:19:39;;;;;;;22.60;15.07;;;17.90;99.90;;;;;;5150272;28;20035;-86
2021/07/26 00:22:06;;;;;;;20.05;15.45;;;17.90;99.90;;;;;;5116835;28;20038;-85
2021/07/26 00:24:32;;;;;;;27.88;17.52;;;17.90;99.90;;;;;;5133240;28;20039;-85
2021/07/26 00:26:59;;;;;;;25.85;17.38;;;17.80;99.90;;;;;;5116660;28;20035;-86
2021/07/26 00:29:26;;;;;;;26.40;16.85;;;17.80;99.90;;;;;;5116749;28;20031;-85
2021/07/26 00:31:53;;;;;;;27.42;18.25;;;17.80;99.90;;;;;;5115703;28;20039;-86
2021/07/26 00:34:24;;;;;;;26.80;17.73;;;17.80;99.90;;;;;;5116615;28;20114;-86
2021/07/26 00:36:52;;;;;;;24.27;17.48;;;17.80;99.90;;;;;;5149846;28;20040;-86
2021/07/26 00:39:21;;;;;;;30.40;17.15;;;17.70;99.90;;;;;;5150316;28;20078;-86
2021/07/26 00:41:50;;;;;;;22.23;16.83;;;17.70;99.90;;;;;;5132580;28;20043;-86
2021/07/26 00:44:18;;;;;;;25.75;17.35;;;17.70;99.90;;;;;;5116666;28;20044;-86
2021/07/26 00:46:46;;;;;;;26.70;16.35;;;17.70;99.90;;;;;;5149978;28;20062;-86
2021/07/26 00:49:14;;;;;;;26.55;17.67;;;17.60;99.90;;;;;;5116956;28;20449;-86
2021/07/26 00:51:50;;;;;;;26.70;16.75;;;17.60;99.90;;;;;;5133507;28;20476;-87
2021/07/26 00:54:30;;;;;;;23.90;16.95;;;17.60;99.90;;;;;;5150308;28;20395;-87
2021/07/26 00:57:03;;;;;;;31.73;18.30;;;17.50;99.90;;;;;;5149934;28;20039;-87
2021/07/26 00:59:30;;;;;;;29.58;18.67;;;17.50;99.90;;;;;;5150566;28;20113;-87
2021/07/26 01:01:58;;;;;;;29.48;17.95;;;17.50;99.90;;;;;;5132883;28;20046;-87
2021/07/26 01:04:26;;;;;;;28.92;18.15;;;17.50;99.90;;;;;;5133382;28;20036;-86
2021/07/26 01:06:54;;;;;;;31.52;17.88;;;17.40;99.90;;;;;;5132491;28;20035;-87
2021/07/26 01:09:21;;;;;;;29.67;18.75;;;17.40;99.90;;;;;;5149991;28;20085;-87
2021/07/26 01:11:48;;;;;;;24.73;17.58;;;17.40;99.90;;;;;;5149700;28;20050;-87
2021/07/26 01:14:15;;;;;;;23.63;17.75;;;17.40;99.90;;;;;;5133041;28;20032;-86
2021/07/26 01:16:45;;;;;;;26.38;17.58;;;17.30;99.90;;;;;;5149228;28;20481;-87
2021/07/26 01:19:14;;;;;;;27.48;18.20;;;17.30;99.90;;;;;;5149573;28;20075;-86
2021/07/26 01:21:41;;;;;;;28.67;18.25;;;17.30;99.90;;;;;;5132319;28;20381;-87
2021/07/26 01:24:07;;;;;;;30.02;18.73;;;17.30;99.90;;;;;;5115195;28;20038;-87
2021/07/26 01:26:34;;;;;;;27.80;19.85;;;17.30;99.90;;;;;;5115472;28;20084;-87
2021/07/26 01:29:04;;;;;;;29.05;19.77;;;17.30;99.90;;;;;;5115492;28;20034;-87
2021/07/26 01:31:32;;;;;;;30.35;20.80;;;17.20;99.90;;;;;;5149629;28;20035;-87
2021/07/26 01:34:01;;;;;;;33.78;20.10;;;17.20;99.90;;;;;;5149188;28;20430;-87
2021/07/26 01:36:29;;;;;;;26.50;19.27;;;17.20;99.90;;;;;;5115700;28;20377;-87
2021/07/26 01:38:56;;;;;;;26.67;19.33;;;17.10;99.90;;;;;;5132221;28;20100;-88
2021/07/26 01:41:26;;;;;;;31.70;18.73;;;17.10;99.90;;;;;;5149570;28;20067;-87
2021/07/26 01:44:02;;;;;;;29.08;19.15;;;17.10;99.90;;;;;;5132788;28;20433;-86
2021/07/26 01:47:00;;;;;;;27.98;19.60;;;17.10;99.90;;;;;;5149189;28;20089;-86
2021/07/26 01:49:35;;;;;;;28.45;20.13;;;17.10;99.90;;;;;;5149681;28;20040;-88
2021/07/26 01:52:03;;;;;;;32.55;20.27;;;17.00;99.90;;;;;;5150299;28;20039;-88
2021/07/26 01:54:30;;;;;;;29.08;20.48;;;17.00;99.90;;;;;;5132412;28;20039;-88
2021/07/26 01:56:57;;;;;;;28.40;19.73;;;17.00;99.90;;;;;;5148846;28;20035;-87
2021/07/26 01:59:24;;;;;;;28.52;19.58;;;17.00;99.90;;;;;;5132095;28;20480;-87
2021/07/26 02:01:51;;;;;;;27.40;19.25;;;16.90;99.90;;;;;;5131616;28;20031;-86
2021/07/26 02:04:18;;;;;;;29.95;20.30;;;16.90;99.90;;;;;;5149166;28;20499;-88
2021/07/26 02:06:45;;;;;;;28.95;20.02;;;16.90;99.90;;;;;;5148764;28;20460;-87
2021/07/26 02:09:11;;;;;;;26.30;18.98;;;16.80;99.90;;;;;;5115612;28;20032;-87
2021/07/26 02:11:38;;;;;;;28.15;19.65;;;16.90;99.90;;;;;;5115219;28;20040;-87
2021/07/26 02:14:10;;;;;;;23.63;18.13;;;16.80;99.90;;;;;;5115448;28;20075;-87
2021/07/26 02:16:38;;;;;;;31.88;20.00;;;16.80;99.90;;;;;;5116117;28;20039;-87
2021/07/26 02:19:06;;;;;;;33.35;20.52;;;16.80;99.90;;;;;;5131341;28;20043;-87
2021/07/26 02:21:33;;;;;;;32.72;21.23;;;16.80;99.90;;;;;;5148213;28;20036;-87
2021/07/26 02:24:07;;;;;;;30.17;21.73;;;16.80;99.90;;;;;;5115518;28;20062;-87
2021/07/26 02:26:34;;;;;;;35.35;22.25;;;16.80;99.90;;;;;;5132453;28;20089;-87
2021/07/26 02:29:02;;;;;;;36.50;22.60;;;16.80;99.90;;;;;;5131583;28;20472;-88
2021/07/26 02:31:29;;;;;;;33.92;23.83;;;16.70;99.90;;;;;;5131759;28;20042;-86
2021/07/26 02:33:55;;;;;;;32.58;23.10;;;16.70;99.90;;;;;;5130983;28;20032;-86
2021/07/26 02:36:22;;;;;;;32.90;22.48;;;16.70;99.90;;;;;;5131146;28;20436;-87
2021/07/26 02:38:49;;;;;;;37.10;23.60;;;16.70;99.90;;;;;;5147072;28;20472;-87
2021/07/26 02:41:16;;;;;;;33.92;21.95;;;16.70;99.90;;;;;;5114503;28;20484;-87
2021/07/26 02:43:43;;;;;;;32.33;23.67;;;16.70;99.90;;;;;;5148456;28;20182;-87
2021/07/26 02:46:10;;;;;;;32.50;23.65;;;16.70;99.90;;;;;;5131014;28;20047;-88
2021/07/26 02:48:38;;;;;;;30.92;22.95;;;16.60;99.90;;;;;;5148609;28;20468;-87
2021/07/26 02:51:06;;;;;;;34.33;24.00;;;16.60;99.90;;;;;;5147828;28;20168;-87
2021/07/26 02:53:34;;;;;;;28.85;21.38;;;16.60;99.90;;;;;;5131601;28;20032;-87
2021/07/26 02:56:00;;;;;;;30.08;21.65;;;16.60;99.90;;;;;;5147682;28;20052;-87
2021/07/26 02:58:28;;;;;;;34.95;22.35;;;16.60;99.90;;;;;;5148551;28;20044;-87
2021/07/26 03:00:54;;;;;;;35.97;22.95;;;16.60;99.90;;;;;;5114606;28;20114;-87
2021/07/26 03:03:22;;;;;;;38.25;23.98;;;16.60;99.90;;;;;;5148111;28;20122;-87
2021/07/26 03:05:48;;;;;;;35.83;24.50;;;16.60;99.90;;;;;;5115318;28;20067;-86
2021/07/26 03:08:15;;;;;;;35.20;24.80;;;16.60;99.90;;;;;;5131294;28;20043;-87
2021/07/26 03:10:42;;;;;;;40.92;24.40;;;16.50;99.90;;;;;;5114586;28;20043;-87
2021/07/26 03:13:09;;;;;;;36.42;23.58;;;16.50;99.90;;;;;;5113815;28;20529;-87
2021/07/26 03:15:36;;;;;;;37.78;24.23;;;16.50;99.90;;;;;;5114367;28;20038;-87
2021/07/26 03:18:07;;;;;;;36.08;23.90;;;16.50;99.90;;;;;;5115001;28;20040;-87
2021/07/26 03:20:34;;;;;;;31.67;23.70;;;16.50;99.90;;;;;;5114187;28;20034;-87
2021/07/26 03:23:07;;;;;;;29.10;23.48;;;16.50;99.90;;;;;;5113537;28;20126;-86
2021/07/26 03:25:37;;;;;;;34.70;24.63;;;16.50;99.90;;;;;;5148595;28;20050;-86
2021/07/26 03:28:04;;;;;;;30.13;22.25;;;16.50;99.90;;;;;;5147191;28;20031;-86
2021/07/26 03:30:32;;;;;;;39.65;25.58;;;16.50;99.90;;;;;;5130567;28;20531;-86
2021/07/26 03:32:59;;;;;;;36.35;25.45;;;16.50;99.90;;;;;;5129735;28;20118;-86
2021/07/26 03:35:26;;;;;;;36.13;25.70;;;16.50;99.90;;;;;;5112680;28;20118;-86
2021/07/26 03:37:53;;;;;;;36.45;26.13;;;16.50;99.90;;;;;;5146366;28;20040;-86
2021/07/26 03:40:21;;;;;;;42.05;28.48;;;16.50;99.90;;;;;;5130929;28;20035;-86
2021/07/26 03:42:48;;;;;;;42.92;28.95;;;16.60;99.90;;;;;;5130487;28;20052;-87
2021/07/26 03:45:18;;;;;;;37.80;27.20;;;16.50;99.90;;;;;;5129483;28;20059;-86
2021/07/26 03:47:46;;;;;;;38.92;28.35;;;16.60;99.90;;;;;;5129843;28;20046;-86
2021/07/26 03:50:14;;;;;;;41.58;28.40;;;16.60;99.90;;;;;;5150071;28;20172;-85
2021/07/26 03:52:52;;;;;;;37.42;26.13;;;16.60;99.90;;;;;;5134313;28;20031;-86
2021/07/26 03:55:21;;;;;;;41.38;27.48;;;16.60;99.90;;;;;;5150996;28;20036;-86
2021/07/26 03:57:49;;;;;;;43.63;30.13;;;16.60;99.90;;;;;;5134743;28;20039;-87
2021/07/26 04:00:18;;;;;;;39.90;29.25;;;16.60;99.90;;;;;;5150923;28;20465;-86
2021/07/26 04:02:54;;;;;;;42.42;29.42;;;16.70;99.90;;;;;;5151106;28;20038;-86
2021/07/26 04:05:44;;;;;;;44.15;29.60;;;16.60;99.90;;;;;;5134898;28;20091;-87
2021/07/26 04:08:15;;;;;;;44.50;30.63;;;16.70;99.90;;;;;;5136018;28;20047;-86
2021/07/26 04:10:46;;;;;;;38.08;28.15;;;16.70;99.90;;;;;;5134968;28;20042;-86
2021/07/26 04:13:14;;;;;;;42.80;29.65;;;16.70;99.90;;;;;;5134588;28;20040;-85
2021/07/26 04:15:44;;;;;;;44.33;29.60;;;16.70;99.90;;;;;;5151134;28;20044;-87
2021/07/26 04:18:15;;;;;;;41.40;27.75;;;16.80;99.90;;;;;;5134338;28;20039;-86
2021/07/26 04:20:41;;;;;;;37.60;29.45;;;16.80;99.90;;;;;;5134806;28;20043;-87
2021/07/26 04:23:10;;;;;;;42.58;29.27;;;16.80;99.90;;;;;;5133445;28;20032;-86
2021/07/26 04:25:38;;;;;;;39.95;28.88;;;16.80;99.90;;;;;;5134561;28;20067;-86
2021/07/26 04:28:10;;;;;;;40.67;28.40;;;16.80;99.90;;;;;;5118066;28;20065;-86
2021/07/26 04:30:37;;;;;;;38.33;27.75;;;16.80;99.90;;;;;;5134133;28;20031;-87
2021/07/26 04:33:05;;;;;;;40.47;28.63;;;16.80;99.90;;;;;;5116844;28;20537;-86
2021/07/26 04:35:32;;;;;;;38.85;29.23;;;16.80;99.90;;;;;;5133616;28;20031;-86
2021/07/26 04:37:59;;;;;;;43.20;29.00;;;16.80;99.90;;;;;;5133463;28;20039;-87
2021/07/26 04:40:26;;;;;;;39.35;29.67;;;16.80;99.90;;;;;;5116632;28;20032;-86
2021/07/26 04:42:53;;;;;;;43.53;30.10;;;16.80;99.90;;;;;;5133642;28;20043;-86
2021/07/26 04:45:26;;;;;;;42.97;29.73;;;16.90;99.90;;;;;;5133832;28;20046;-86
2021/07/26 04:47:52;;;;;;;40.65;28.15;;;16.90;99.90;;;;;;5150072;28;20027;-86
2021/07/26 04:50:19;;;;;;;37.13;27.98;;;16.90;99.90;;;;;;5116276;28;20035;-87
2021/07/26 04:52:46;;;;;;;41.63;29.33;;;17.00;99.90;;;;;;5116534;28;20080;-87
2021/07/26 04:55:13;;;;;;;37.60;27.80;;;17.00;99.90;;;;;;5132960;28;20038;-87
2021/07/26 04:57:40;;;;;;;44.60;30.30;;;17.00;99.90;;;;;;5100131;28;20051;-87
2021/07/26 05:00:08;;;;;;;41.70;28.70;;;17.00;99.90;;;;;;5115766;28;20066;-87
2021/07/26 05:02:34;;;;;;;43.50;30.25;;;17.10;99.90;;;;;;5099666;28;20043;-87
2021/07/26 05:05:01;;;;;;;41.15;29.75;;;17.10;99.90;;;;;;5116846;28;20043;-86
2021/07/26 05:07:28;;;;;;;38.15;29.58;;;17.10;99.90;;;;;;5116676;28;20035;-87
2021/07/26 05:09:55;;;;;;;43.63;30.23;;;17.10;99.90;;;;;;5116108;28;20472;-86
2021/07/26 05:12:22;;;;;;;40.15;29.95;;;17.20;99.90;;;;;;5116036;28;20507;-87
2021/07/26 05:14:52;;;;;;;40.58;29.48;;;17.20;99.90;;;;;;5116165;28;20442;-86
2021/07/26 05:17:23;;;;;;;40.53;27.40;;;17.30;99.90;;;;;;5132580;28;20046;-86
2021/07/26 05:19:50;;;;;;;38.20;27.50;;;17.30;99.90;;;;;;5149905;28;20059;-87
2021/07/26 05:22:17;;;;;;;31.52;25.10;;;17.40;99.90;;;;;;5149622;28;20546;-87
2021/07/26 05:24:45;;;;;;;33.45;25.17;;;17.40;99.90;;;;;;5149852;28;20040;-87
2021/07/26 05:27:12;;;;;;;29.40;24.95;;;17.50;99.90;;;;;;5149507;28;20365;-87
2021/07/26 05:29:39;;;;;;;28.27;23.50;;;17.50;99.90;;;;;;5132455;28;20043;-87
2021/07/26 05:32:06;;;;;;;31.13;23.75;;;17.50;99.90;;;;;;5132182;28;20472;-87
2021/07/26 05:34:33;;;;;;;32.45;24.55;;;17.60;99.90;;;;;;5149493;28;20126;-87
2021/07/26 05:37:00;;;;;;;27.00;21.55;;;17.70;99.90;;;;;;5132656;28;20070;-86
2021/07/26 05:39:28;;;;;;;27.05;21.75;;;17.70;99.90;;;;;;5148975;28;20060;-87
2021/07/26 05:42:00;;;;;;;25.48;20.80;;;17.80;99.90;;;;;;5149167;28;20126;-86
2021/07/26 05:44:28;;;;;;;27.88;20.77;;;17.80;99.90;;;;;;5148914;28;20039;-87
2021/07/26 05:46:55;;;;;;;22.77;18.75;;;17.90;99.90;;;;;;5149292;28;20032;-87
2021/07/26 05:49:22;;;;;;;23.80;19.52;;;17.90;99.90;;;;;;5115039;28;20035;-87
2021/07/26 05:51:48;;;;;;;24.73;20.95;;;18.00;99.90;;;;;;5132777;28;20041;-88
2021/07/26 05:54:15;;;;;;;24.52;19.25;;;18.00;99.90;;;;;;5132259;28;20040;-88
2021/07/26 05:56:47;;;;;;;23.00;18.63;;;18.00;99.90;;;;;;5132602;28;20035;-88
2021/07/26 05:59:15;;;;;;;23.17;18.98;;;18.00;99.90;;;;;;5132011;28;20059;-86
2021/07/26 06:01:49;;;;;;;27.85;20.58;;;18.00;99.90;;;;;;5132195;28;20032;-87
2021/07/26 06:04:18;;;;;;;20.90;18.70;;;18.10;99.90;;;;;;5149922;28;20039;-87
2021/07/26 06:06:49;;;;;;;21.48;19.13;;;18.10;99.90;;;;;;5149406;28;20038;-88
2021/07/26 06:09:17;;;;;;;22.55;18.55;;;18.10;99.90;;;;;;5149075;28;20051;-88
2021/07/26 06:11:45;;;;;;;24.05;19.67;;;18.20;99.90;;;;;;5149164;28;20046;-87
2021/07/26 06:14:12;;;;;;;23.52;20.23;;;18.20;99.90;;;;;;5131516;28;20031;-87
2021/07/26 06:16:43;;;;;;;21.80;19.48;;;18.20;99.90;;;;;;5131704;28;20032;-88
2021/07/26 06:19:11;;;;;;;20.90;18.08;;;18.20;99.90;;;;;;5148950;28;20043;-86
2021/07/26 06:21:44;;;;;;;22.02;19.40;;;18.30;99.90;;;;;;5131974;28;20097;-88
2021/07/26 06:24:12;;;;;;;22.20;19.25;;;18.30;99.90;;;;;;5149567;27;20403;-87
2021/07/26 06:26:39;;;;;;;26.63;20.80;;;18.30;99.90;;;;;;5148742;28;20054;-88
2021/07/26 06:29:06;;;;;;;32.80;20.17;;;18.30;99.90;;;;;;5131907;28;20028;-87
2021/07/26 06:31:33;;;;;;;22.67;19.33;;;18.40;99.90;;;;;;5114662;28;20036;-88
2021/07/26 06:34:01;;;;;;;25.67;20.08;;;18.40;99.90;;;;;;5114973;28;20047;-88
2021/07/26 06:36:28;;;;;;;25.05;20.27;;;18.30;99.90;;;;;;5148273;28;20119;-87
2021/07/26 06:38:55;;;;;;;25.00;17.88;;;18.40;99.90;;;;;;5148939;28;20111;-88
2021/07/26 06:41:23;;;;;;;28.85;21.30;;;18.40;99.90;;;;;;5131639;28;20031;-88
2021/07/26 06:43:51;;;;;;;25.00;19.48;;;18.50;99.90;;;;;;5131764;28;20043;-87
2021/07/26 06:46:18;;;;;;;20.40;17.95;;;18.50;99.90;;;;;;5148742;28;20035;-86
2021/07/26 06:48:44;;;;;;;22.60;18.95;;;18.60;99.90;;;;;;5131604;28;20464;-86
2021/07/26 06:51:11;;;;;;;21.92;18.05;;;18.70;99.90;;;;;;5131182;28;20039;-87
2021/07/26 06:53:38;;;;;;;21.88;18.77;;;18.70;99.90;;;;;;5131332;28;20042;-87
2021/07/26 06:56:08;;;;;;;25.13;17.05;;;18.80;99.90;;;;;;5131472;28;20365;-87
2021/07/26 06:58:35;;;;;;;22.85;18.63;;;18.90;99.90;;;;;;5130522;28;20048;-86
2021/07/26 07:01:06;;;;;;;21.58;17.63;;;18.90;99.90;;;;;;5130844;28;20059;-86
2021/07/26 07:03:33;;;;;;;20.23;17.73;;;19.10;99.90;;;;;;5148868;28;20028;-87
2021/07/26 07:06:04;;;;;;;21.05;17.25;;;19.10;99.90;;;;;;5131194;28;20044;-87
2021/07/26 07:08:30;;;;;;;23.40;15.02;;;19.20;99.90;;;;;;5131107;28;20177;-86
2021/07/26 07:11:07;;;;;;;19.05;15.43;;;19.30;99.90;;;;;;5114384;28;20063;-87
2021/07/26 07:13:36;;;;;;;16.48;14.45;;;19.40;99.90;;;;;;5147431;28;20040;-86
2021/07/26 07:16:17;;;;;;;19.67;14.23;;;19.40;99.90;;;;;;5148013;28;20071;-87
2021/07/26 07:18:45;;;;;;;19.80;14.82;;;19.40;99.90;;;;;;5147954;28;20101;-86
2021/07/26 07:21:26;;;;;;;18.67;14.13;;;19.50;99.90;;;;;;5149011;28;20035;-86
2021/07/26 07:23:55;;;;;;;17.42;13.45;;;19.50;99.90;;;;;;5132362;28;20458;-87
2021/07/26 07:26:23;;;;;;;15.55;12.90;;;19.70;99.90;;;;;;5151227;28;20039;-86
2021/07/26 07:28:51;;;;;;;12.95;11.65;;;19.70;99.90;;;;;;5134936;28;20184;-86
2021/07/26 07:31:23;;;;;;;12.52;10.73;;;19.80;99.90;;;;;;5151210;28;20032;-86
2021/07/26 07:33:50;;;;;;;13.60;11.15;;;19.90;99.90;;;;;;5151650;28;20032;-85
2021/07/26 07:36:18;;;;;;;11.80;8.43;;;20.00;99.90;;;;;;5134398;28;20043;-86
2021/07/26 07:38:45;;;;;;;11.15;8.10;;;20.10;99.90;;;;;;5134693;28;20057;-86
2021/07/26 07:41:12;;;;;;;9.95;7.93;;;20.20;99.90;;;;;;5134375;28;20040;-85
2021/07/26 07:43:39;;;;;;;11.00;8.45;;;20.20;99.90;;;;;;5150534;28;20055;-85
2021/07/26 07:46:06;;;;;;;11.32;8.13;;;20.30;99.90;;;;;;5134132;28;20035;-86
2021/07/26 07:48:34;;;;;;;13.38;8.32;;;20.40;99.90;;;;;;5133514;28;20077;-85
2021/07/26 07:51:01;;;;;;;8.57;7.45;;;20.40;99.90;;;;;;5134208;28;20043;-85
2021/07/26 07:53:28;;;;;;;10.65;7.82;;;20.50;99.90;;;;;;5150357;28;20038;-85
2021/07/26 07:55:55;;;;;;;10.65;8.38;;;20.60;99.90;;;;;;5133717;28;20035;-86
2021/07/26 07:58:22;;;;;;;10.80;8.70;;;20.70;99.90;;;;;;5133547;28;20035;-85
2021/07/26 08:00:54;;;;;;;10.82;8.07;;;20.80;99.90;;;;;;5133936;28;20537;-85
2021/07/26 08:03:21;;;;;;;12.63;9.15;;;20.90;99.90;;;;;;5133995;28;20044;-85
2021/07/26 08:05:48;;;;;;;13.73;8.45;;;20.90;99.90;;;;;;5133724;28;20369;-85
2021/07/26 08:08:16;;;;;;;10.23;8.55;;;20.90;99.90;;;;;;5150740;28;20032;-86
2021/07/26 08:10:43;;;;;;;10.52;8.13;;;21.00;99.90;;;;;;5133359;28;20032;-85
2021/07/26 08:13:10;;;;;;;15.77;8.25;;;21.00;99.90;;;;;;5133990;28;20040;-86
2021/07/26 08:15:37;;;;;;;12.85;9.43;;;21.10;99.90;;;;;;5133373;28;20044;-86
2021/07/26 08:18:07;;;;;;;11.68;9.35;;;21.20;99.90;;;;;;5150862;28;20106;-86
2021/07/26 08:20:33;;;;;;;13.10;10.07;;;21.30;99.90;;;;;;5150188;28;20080;-85
2021/07/26 08:23:00;;;;;;;10.52;9.20;;;21.30;99.90;;;;;;5150805;28;20039;-86
2021/07/26 08:25:29;;;;;;;13.10;9.55;;;21.40;99.90;;;;;;5133285;28;20036;-85
2021/07/26 08:27:58;;;;;;;13.75;9.27;;;21.50;99.90;;;;;;5150355;28;20039;-85
2021/07/26 08:30:27;;;;;;;10.63;9.18;;;21.60;99.90;;;;;;5132923;28;20039;-84
2021/07/26 08:32:55;;;;;;;13.30;9.65;;;21.70;99.90;;;;;;5151173;28;20028;-84
2021/07/26 08:35:22;;;;;;;13.18;10.13;;;21.80;99.90;;;;;;5150194;28;20089;-85
2021/07/26 08:37:49;;;;;;;11.40;9.27;;;21.90;99.90;;;;;;5132284;28;20043;-84
2021/07/26 08:40:19;;;;;;;12.73;10.40;;;22.00;99.90;;;;;;5133124;28;20031;-85
2021/07/26 08:42:46;;;;;;;13.23;9.13;;;22.20;99.90;;;;;;5149364;28;20130;-84
2021/07/26 08:45:13;;;;;;;11.27;8.75;;;22.30;99.90;;;;;;5150091;28;20043;-85
2021/07/26 08:47:42;;;;;;;11.10;8.55;;;22.40;99.90;;;;;;5132671;28;20509;-85
2021/07/26 08:50:12;;;;;;;9.48;7.40;;;22.60;99.90;;;;;;5150171;28;20039;-85
2021/07/26 08:52:42;;;;;;;11.13;7.25;;;22.70;99.90;;;;;;5149326;28;20036;-85
2021/07/26 08:55:13;;;;;;;11.98;8.45;;;22.70;99.90;;;;;;5149932;28;20476;-85
2021/07/26 08:57:42;;;;;;;10.80;7.18;;;22.70;99.90;;;;;;5149516;28;20628;-85
2021/07/26 09:00:10;;;;;;;12.65;6.50;;;22.80;99.90;;;;;;5149712;28;20036;-84
2021/07/26 09:02:38;;;;;;;9.93;5.60;;;22.90;99.90;;;;;;5132361;28;20027;-85
2021/07/26 09:05:09;;;;;;;8.20;6.15;;;22.90;99.90;;;;;;5132456;28;20039;-85
2021/07/26 09:07:54;;;;;;;8.18;5.32;;;23.00;99.90;;;;;;5149848;28;20036;-86
2021/07/26 09:10:23;;;;;;;8.38;4.70;;;23.10;99.90;;;;;;5132472;28;20498;-85
2021/07/26 09:12:52;;;;;;;8.32;4.70;;;23.20;99.90;;;;;;5149168;28;20036;-85
2021/07/26 09:15:25;;;;;;;8.00;4.30;;;23.20;99.90;;;;;;5149850;28;20065;-85
2021/07/26 09:17:53;;;;;;;6.97;4.40;;;23.20;99.90;;;;;;5149106;28;20039;-85
2021/07/26 09:20:20;;;;;;;8.05;4.07;;;23.40;99.90;;;;;;5132210;28;20036;-84
2021/07/26 09:22:47;;;;;;;6.32;4.20;;;23.40;99.90;;;;;;5131727;28;20036;-85
2021/07/26 09:25:24;;;;;;;5.95;4.00;;;23.40;99.90;;;;;;5149444;28;20420;-85
2021/07/26 09:28:01;;;;;;;8.98;4.70;;;23.60;99.90;;;;;;5149008;28;20070;-86
2021/07/26 09:30:40;;;;;;;6.60;4.45;;;23.70;99.90;;;;;;5150621;28;20050;-84
2021/07/26 09:33:27;;;;;;;6.35;4.00;;;23.70;99.90;;;;;;5149094;28;20448;-85
2021/07/26 09:36:13;;;;;;;6.95;3.72;;;23.90;99.90;;;;;;5131667;28;20039;-85
2021/07/26 09:38:49;;;;;;;6.10;3.60;;;24.00;99.90;;;;;;5148718;28;20478;-85
2021/07/26 09:41:16;;;;;;;5.88;3.30;;;24.10;99.90;;;;;;5148972;28;20038;-86
2021/07/26 09:43:44;;;;;;;6.43;3.50;;;24.10;99.90;;;;;;5131718;28;20052;-85
2021/07/26 09:46:27;;;;;;;5.90;3.45;;;24.10;99.90;;;;;;5132045;28;20062;-86
2021/07/26 09:49:17;;;;;;;8.32;3.53;;;24.10;99.90;;;;;;5148873;28;20036;-85
2021/07/26 09:52:05;;;;;;;4.75;3.28;;;24.00;99.90;;;;;;5149515;28;20038;-85
2021/07/26 09:54:45;;;;;;;5.78;3.53;;;24.00;99.90;;;;;;5132209;28;20044;-86
2021/07/26 09:57:23;;;;;;;5.78;3.25;;;24.00;99.90;;;;;;5131572;28;20087;-85
2021/07/26 09:59:51;;;;;;;4.45;3.00;;;24.00;99.90;;;;;;5148500;28;20081;-85
2021/07/26 10:02:19;;;;;;;5.97;2.90;;;24.00;99.90;;;;;;5149222;28;20433;-85
2021/07/26 10:04:47;;;;;;;5.32;3.10;;;24.00;99.90;;;;;;5130969;28;20035;-85
2021/07/26 10:07:16;;;;;;;6.38;3.22;;;24.10;99.90;;;;;;5132368;28;20031;-85
2021/07/26 10:09:44;;;;;;;5.45;3.40;;;24.30;99.90;;;;;;5148221;28;20032;-84
2021/07/26 10:12:15;;;;;;;5.78;3.30;;;24.30;99.90;;;;;;5131308;28;20408;-85
2021/07/26 10:14:43;;;;;;;5.05;3.08;;;24.40;99.90;;;;;;5130581;28;20040;-84
2021/07/26 10:17:10;;;;;;;5.50;3.13;;;24.30;99.90;;;;;;5147898;28;20036;-85
2021/07/26 10:19:37;;;;;;;6.30;2.92;;;24.30;99.90;;;;;;5130723;28;20034;-85
2021/07/26 10:22:06;;;;;;;5.28;3.00;;;24.40;99.90;;;;;;5131025;28;20036;-84
2021/07/26 10:24:38;;;;;;;4.90;3.22;;;24.40;99.90;;;;;;5148486;28;20040;-84
2021/07/26 10:27:20;;;;;;;5.68;3.03;;;24.50;99.90;;;;;;5148213;28;20059;-84
2021/07/26 10:29:58;;;;;;;6.65;3.70;;;24.80;99.90;;;;;;5147869;28;20437;-85
2021/07/26 10:32:28;;;;;;;8.60;3.60;;;25.10;99.90;;;;;;5148741;28;20040;-85
2021/07/26 10:34:56;;;;;;;7.45;3.97;;;25.30;99.90;;;;;;5147713;28;20035;-83
2021/07/26 10:37:41;;;;;;;7.43;3.65;;;25.40;99.90;;;;;;5131140;28;20040;-84
2021/07/26 10:40:23;;;;;;;6.25;3.67;;;25.30;99.90;;;;;;5148082;28;20040;-85
2021/07/26 10:42:54;;;;;;;8.63;3.83;;;25.40;99.90;;;;;;5148803;28;20048;-85
2021/07/26 10:45:31;;;;;;;6.45;3.40;;;25.30;99.90;;;;;;5148538;28;20062;-85
2021/07/26 10:48:20;;;;;;;6.60;3.60;;;25.40;99.90;;;;;;5147663;28;20036;-84
2021/07/26 10:50:47;;;;;;;5.18;3.60;;;25.60;99.90;;;;;;5147464;28;20034;-84
2021/07/26 10:53:35;;;;;;;6.72;3.60;;;25.60;99.90;;;;;;5130778;28;20036;-84
2021/07/26 10:56:06;;;;;;;5.85;3.10;;;25.70;99.90;;;;;;5148237;28;20071;-85
2021/07/26 10:58:38;;;;;;;5.43;3.15;;;25.60;99.90;;;;;;5147373;28;20047;-85
2021/07/26 11:01:21;;;;;;;6.20;3.00;;;25.60;99.90;;;;;;5148160;28;20039;-85
2021/07/26 11:03:55;;;;;;;7.07;3.53;;;25.80;99.90;;;;;;5148624;28;20036;-85
2021/07/26 11:06:37;;;;;;;7.05;3.25;;;25.80;99.90;;;;;;5130979;28;20040;-86
2021/07/26 11:09:21;;;;;;;7.78;3.55;;;25.80;99.90;;;;;;5147310;28;20032;-85
2021/07/26 11:11:53;;;;;;;6.50;2.92;;;25.80;99.90;;;;;;5147253;28;20042;-84
2021/07/26 11:14:20;;;;;;;4.28;2.83;;;25.80;99.90;;;;;;5131309;28;20040;-84
2021/07/26 11:16:55;;;;;;;4.63;2.55;;;25.80;99.90;;;;;;5130100;28;20063;-85
2021/07/26 11:19:38;;;;;;;4.07;2.60;;;25.90;99.90;;;;;;5147786;28;20035;-84
2021/07/26 11:22:15;;;;;;;4.43;2.70;;;26.00;99.90;;;;;;5147021;28;20395;-84
2021/07/26 11:24:49;;;;;;;4.30;2.83;;;26.10;99.90;;;;;;5147724;28;20122;-84
2021/07/26 11:27:37;;;;;;;6.50;2.85;;;26.00;99.90;;;;;;5130351;28;20061;-84
2021/07/26 11:30:08;;;;;;;5.18;2.60;;;25.90;99.90;;;;;;5151090;28;20130;-85
2021/07/26 11:32:36;;;;;;;3.88;2.55;;;25.90;99.90;;;;;;5147818;28;20036;-84
2021/07/26 11:35:04;;;;;;;6.20;2.85;;;25.70;99.90;;;;;;5130296;28;20449;-84
2021/07/26 11:37:32;;;;;;;7.15;2.70;;;25.60;99.90;;;;;;5147921;28;20039;-84
2021/07/26 11:40:04;;;;;;;5.05;2.72;;;25.20;99.90;;;;;;5130263;28;20048;-84
2021/07/26 11:42:39;;;;;;;6.28;2.95;;;25.00;99.90;;;;;;5147124;28;20512;-84
2021/07/26 11:45:09;;;;;;;4.78;3.00;;;24.80;99.90;;;;;;5146726;28;20039;-84
2021/07/26 11:47:41;;;;;;;5.88;2.80;;;24.90;99.90;;;;;;5130428;28;20042;-84
2021/07/26 11:50:10;;;;;;;5.38;3.03;;;25.00;99.90;;;;;;5146913;28;20036;-84
2021/07/26 11:52:38;;;;;;;4.95;3.28;;;25.20;99.90;;;;;;5130613;28;20032;-85
2021/07/26 11:55:12;;;;;;;5.80;3.05;;;25.40;99.90;;;;;;5146467;28;20123;-85
2021/07/26 11:58:07;;;;;;;7.40;3.38;;;25.60;99.90;;;;;;5130797;28;20457;-84
2021/07/26 12:00:46;;;;;;;5.15;2.72;;;25.70;99.90;;;;;;5147447;28;20036;-85
2021/07/26 12:03:16;;;;;;;5.60;2.70;;;25.90;99.90;;;;;;5146987;28;20035;-85
2021/07/26 12:05:43;;;;;;;4.70;2.75;;;25.90;99.90;;;;;;5147145;28;20064;-85
2021/07/26 12:08:15;;;;;;;6.00;2.90;;;25.70;99.90;;;;;;5129844;28;20071;-85
2021/07/26 12:10:42;;;;;;;5.55;2.30;;;25.70;99.90;;;;;;5132350;28;20440;-85
2021/07/26 12:13:11;;;;;;;4.68;2.50;;;25.80;99.90;;;;;;5150118;28;20042;-85
2021/07/26 12:15:40;;;;;;;6.85;2.50;;;25.90;99.90;;;;;;5151748;28;20036;-85
2021/07/26 12:18:09;;;;;;;6.40;2.70;;;26.00;99.90;;;;;;5150131;28;20038;-83
2021/07/26 12:20:44;;;;;;;4.93;2.50;;;26.10;99.90;;;;;;5150667;28;20038;-82
2021/07/26 12:23:16;;;;;;;4.03;2.40;;;26.20;99.90;;;;;;5149429;28;20093;-82
2021/07/26 12:25:51;;;;;;;3.45;2.25;;;26.30;99.90;;;;;;5151627;28;20472;-82
2021/07/26 12:28:23;;;;;;;5.00;2.60;;;26.30;99.90;;;;;;5133591;28;20052;-82
2021/07/26 12:30:51;;;;;;;6.00;2.58;;;26.50;99.90;;;;;;5149990;28;20032;-83
2021/07/26 12:33:32;;;;;;;4.43;2.50;;;26.60;99.90;;;;;;5133523;28;20042;-83
2021/07/26 12:36:15;;;;;;;5.20;2.72;;;26.70;99.90;;;;;;5133210;28;20032;-82
2021/07/26 12:39:04;;;;;;;4.57;2.55;;;26.70;99.90;;;;;;5150191;28;20036;-83
2021/07/26 12:41:32;;;;;;;5.25;2.88;;;26.60;99.90;;;;;;5149996;28;20031;-83
2021/07/26 12:44:18;;;;;;;5.72;3.00;;;26.50;99.90;;;;;;5132565;28;20541;-83
2021/07/26 12:46:53;;;;;;;4.60;2.88;;;26.60;99.90;;;;;;5150104;28;20046;-85